Broadlands, Illinois
Current Conditions -  °F | °C
As of 10:53 PM on Saturday 25 Oct 2014 (Local Time) from KCMI Reporting Station
Clear Clear  
Wind Chill: 52°   Ceiling: Unl
Heat Index: 52°   Visibility: 10mi
Dew Point: 42°   Wind: 9mph
Humidity: 69%   Direction: 310°NW
Pressure: 30.01"   Gusts: NA
Location:  39.91°N, 87.99°W
Report Text: KCMI 260353Z 31008KT 10SM CLR 11/06 A3001 RMK AO2 SLP162 T01110056 $
Loading
Personal Weather Stations






























Interactive Weather Map New forecast layout! Learn more

10-Day Weather Forecast

Advertisements
Track Severe Weather on mobile